^^
Saratoga-Weather Station Historical Data
Daily Summary for June 1, 2021 Units:  Both    English   Metric
Daily Weekly Monthly Yearly Custom
  High: Low: Average:
Temperature: 73 °F /  22.8 °C 55.9 °F /  13.3 °C 63.1 °F /  17.3 °C
Dew Point: 59.2 °F /  15.1 °C 52 °F /  11.1 °C 55.4 °F /  13 °C
Humidity: 93% 58% 77%
Wind Speed: 10.1mph /  16.3km/h - 1.8mph /  2.9km/h
Wind Gust: 12mph /  19.3km/h - -
Wind- - SSE
Pressure: 30.3 in /  1026.1 hPa 30.2 in /  1023.4 hPa -
Precipitation: 0 in /  0.0 mm    
Historical Graphs
 
 
Tabular Data for June 1, 2021
Time Temperature Dew Point Pressure Wind Wind Speed Wind Gust Humidity Rainfall Rate (Hourly) solar
00:00 57.7 °F /  14.3 °C 52.3 °F /  11.3 °C 30.3in /  1024.7hPa ESE 0.9mph /  1.4km/h 1mph /  1.6km/h 82% 0in /  0.0mm 0 W/m2
00:05 57.7 °F /  14.3 °C 52.3 °F /  11.3 °C 30.3in /  1024.7hPa ESE 0.9mph /  1.4km/h 1mph /  1.6km/h 82% 0in /  0.0mm 0 W/m2
00:10 57.6 °F /  14.2 °C 52.5 °F /  11.4 °C 30.3in /  1024.7hPa Calm   1mph /  1.6km/h 83% 0in /  0.0mm 0 W/m2
00:15 57.6 °F /  14.2 °C 52.5 °F /  11.4 °C 30.3in /  1024.7hPa Calm     83% 0in /  0.0mm 0 W/m2
00:21 57.2 °F /  14 °C 52.2 °F /  11.2 °C 30.3in /  1024.7hPa ESE 2mph /  3.2km/h 2mph /  3.2km/h 83% 0in /  0.0mm 0 W/m2
00:26 57 °F /  13.9 °C 52 °F /  11.1 °C 30.3in /  1024.7hPa Calm   1mph /  1.6km/h 83% 0in /  0.0mm 0 W/m2
00:31 56.8 °F /  13.8 °C 52 °F /  11.1 °C 30.3in /  1024.7hPa Calm   1mph /  1.6km/h 84% 0in /  0.0mm 0 W/m2
00:36 56.8 °F /  13.8 °C 52.3 °F /  11.3 °C 30.3in /  1024.7hPa ESE 0.9mph /  1.4km/h 2mph /  3.2km/h 85% 0in /  0.0mm 0 W/m2
00:41 56.8 °F /  13.8 °C 52.3 °F /  11.3 °C 30.3in /  1024.7hPa Calm   1mph /  1.6km/h 85% 0in /  0.0mm 0 W/m2
00:46 56.8 °F /  13.8 °C 52.3 °F /  11.3 °C 30.3in /  1024.7hPa ESE 0.9mph /  1.4km/h 2mph /  3.2km/h 85% 0in /  0.0mm 0 W/m2
00:51 56.8 °F /  13.8 °C 52.3 °F /  11.3 °C 30.3in /  1024.7hPa ESE 0.9mph /  1.4km/h 2mph /  3.2km/h 85% 0in /  0.0mm 0 W/m2
00:56 56.8 °F /  13.8 °C 52.3 °F /  11.3 °C 30.3in /  1024.7hPa Calm   1mph /  1.6km/h 85% 0in /  0.0mm 0 W/m2
01:01 56.7 °F /  13.7 °C 52.5 °F /  11.4 °C 30.3in /  1024.7hPa ESE 0.9mph /  1.4km/h 2mph /  3.2km/h 86% 0in /  0.0mm 0 W/m2
01:06 56.7 °F /  13.7 °C 52.5 °F /  11.4 °C 30.3in /  1024.7hPa Calm   1mph /  1.6km/h 86% 0in /  0.0mm 0 W/m2
01:11 56.7 °F /  13.7 °C 52.5 °F /  11.4 °C 30.3in /  1024.7hPa Calm     86% 0in /  0.0mm 0 W/m2
01:16 56.7 °F /  13.7 °C 52.5 °F /  11.4 °C 30.3in /  1024.7hPa Calm     86% 0in /  0.0mm 0 W/m2
01:21 56.7 °F /  13.7 °C 52.5 °F /  11.4 °C 30.3in /  1024.7hPa Calm     86% 0in /  0.0mm 0 W/m2
01:26 56.7 °F /  13.7 °C 52.5 °F /  11.4 °C 30.3in /  1024.7hPa Calm     86% 0in /  0.0mm 0 W/m2
01:31 56.7 °F /  13.7 °C 52.5 °F /  11.4 °C 30.3in /  1024.7hPa ESE 0.9mph /  1.4km/h 1mph /  1.6km/h 86% 0in /  0.0mm 0 W/m2
01:36 56.5 °F /  13.6 °C 52.7 °F /  11.5 °C 30.3in /  1024.7hPa ESE 2mph /  3.2km/h 2mph /  3.2km/h 87% 0in /  0.0mm 0 W/m2
01:41 56.7 °F /  13.7 °C 52.9 °F /  11.6 °C 30.3in /  1024.7hPa Calm     87% 0in /  0.0mm 0 W/m2
01:46 56.5 °F /  13.6 °C 52.7 °F /  11.5 °C 30.3in /  1024.7hPa ESE 0.9mph /  1.4km/h 1mph /  1.6km/h 87% 0in /  0.0mm 0 W/m2
01:51 56.5 °F /  13.6 °C 52.7 °F /  11.5 °C 30.3in /  1024.7hPa ESE 0.9mph /  1.4km/h 2mph /  3.2km/h 87% 0in /  0.0mm 0 W/m2
01:56 56.5 °F /  13.6 °C 52.7 °F /  11.5 °C 30.3in /  1024.7hPa ESE 0.9mph /  1.4km/h 2mph /  3.2km/h 87% 0in /  0.0mm 0 W/m2
02:01 56.5 °F /  13.6 °C 52.7 °F /  11.5 °C 30.3in /  1024.7hPa ESE 0.9mph /  1.4km/h 2mph /  3.2km/h 87% 0in /  0.0mm 0 W/m2
02:06 56.3 °F /  13.5 °C 52.5 °F /  11.4 °C 30.3in /  1024.7hPa SE 0.9mph /  1.4km/h 3mph /  4.8km/h 87% 0in /  0.0mm 0 W/m2
02:11 56.5 °F /  13.6 °C 52.7 °F /  11.5 °C 30.3in /  1024.7hPa SE 0.9mph /  1.4km/h 2mph /  3.2km/h 87% 0in /  0.0mm 0 W/m2
02:16 56.3 °F /  13.5 °C 52.5 °F /  11.4 °C 30.3in /  1024.7hPa SE 0.9mph /  1.4km/h 3mph /  4.8km/h 87% 0in /  0.0mm 0 W/m2
02:21 56.3 °F /  13.5 °C 52.5 °F /  11.4 °C 30.3in /  1024.7hPa Calm   2mph /  3.2km/h 87% 0in /  0.0mm 0 W/m2
02:26 56.3 °F /  13.5 °C 52.5 °F /  11.4 °C 30.3in /  1024.7hPa SE 0.9mph /  1.4km/h 3mph /  4.8km/h 87% 0in /  0.0mm 0 W/m2
02:31 56.1 °F /  13.4 °C 52.3 °F /  11.3 °C 30.3in /  1024.7hPa SE 0.9mph /  1.4km/h 1mph /  1.6km/h 87% 0in /  0.0mm 0 W/m2
02:36 56.1 °F /  13.4 °C 52.7 °F /  11.5 °C 30.3in /  1024.7hPa SE 0.9mph /  1.4km/h 2mph /  3.2km/h 88% 0in /  0.0mm 0 W/m2
02:41 56.1 °F /  13.4 °C 52.7 °F /  11.5 °C 30.3in /  1024.7hPa SE 0.9mph /  1.4km/h 2mph /  3.2km/h 88% 0in /  0.0mm 0 W/m2
02:46 55.9 °F /  13.3 °C 52.5 °F /  11.4 °C 30.3in /  1024.7hPa SE 0.9mph /  1.4km/h 1mph /  1.6km/h 88% 0in /  0.0mm 0 W/m2
02:51 55.9 °F /  13.3 °C 52.5 °F /  11.4 °C 30.3in /  1024.7hPa Calm   2mph /  3.2km/h 88% 0in /  0.0mm 0 W/m2
02:56 55.9 °F /  13.3 °C 52.5 °F /  11.4 °C 30.3in /  1024.7hPa SE 0.9mph /  1.4km/h 1mph /  1.6km/h 88% 0in /  0.0mm 0 W/m2
03:01 55.9 °F /  13.3 °C 52.5 °F /  11.4 °C 30.3in /  1024.7hPa Calm   1mph /  1.6km/h 88% 0in /  0.0mm 0 W/m2
03:06 55.9 °F /  13.3 °C 52.5 °F /  11.4 °C 30.3in /  1024.7hPa Calm   1mph /  1.6km/h 88% 0in /  0.0mm 0 W/m2
03:12 55.9 °F /  13.3 °C 52.7 °F /  11.5 °C 30.3in /  1024.7hPa SE 0.9mph /  1.4km/h 2mph /  3.2km/h 89% 0in /  0.0mm 0 W/m2
03:17 55.9 °F /  13.3 °C 52.7 °F /  11.5 °C 30.3in /  1024.7hPa East 0.9mph /  1.4km/h 3mph /  4.8km/h 89% 0in /  0.0mm 0 W/m2
03:22 55.9 °F /  13.3 °C 52.7 °F /  11.5 °C 30.3in /  1024.7hPa Calm   2mph /  3.2km/h 89% 0in /  0.0mm 0 W/m2
03:27 56.1 °F /  13.4 °C 52.9 °F /  11.6 °C 30.3in /  1024.7hPa Calm   2mph /  3.2km/h 89% 0in /  0.0mm 0 W/m2
03:32 56.1 °F /  13.4 °C 52.9 °F /  11.6 °C 30.3in /  1025.1hPa SE 0.9mph /  1.4km/h 2mph /  3.2km/h 89% 0in /  0.0mm 0 W/m2
03:37 56.1 °F /  13.4 °C 52.9 °F /  11.6 °C 30.3in /  1024.7hPa Calm   2mph /  3.2km/h 89% 0in /  0.0mm 0 W/m2
03:42 56.1 °F /  13.4 °C 52.9 °F /  11.6 °C 30.3in /  1024.7hPa East 0.9mph /  1.4km/h 2mph /  3.2km/h 89% 0in /  0.0mm 0 W/m2
03:47 56.1 °F /  13.4 °C 53.2 °F /  11.8 °C 30.3in /  1025.1hPa SW 2mph /  3.2km/h 2mph /  3.2km/h 90% 0in /  0.0mm 0 W/m2
03:52 56.3 °F /  13.5 °C 53.4 °F /  11.9 °C 30.3in /  1025.1hPa WNW 0.9mph /  1.4km/h 1mph /  1.6km/h 90% 0in /  0.0mm 0 W/m2
03:57 56.3 °F /  13.5 °C 53.4 °F /  11.9 °C 30.3in /  1025.1hPa SSW 0.9mph /  1.4km/h 4mph /  6.4km/h 90% 0in /  0.0mm 0 W/m2
04:02 56.3 °F /  13.5 °C 53.4 °F /  11.9 °C 30.3in /  1025.1hPa South 0.9mph /  1.4km/h 2mph /  3.2km/h 90% 0in /  0.0mm 0 W/m2
04:07 56.3 °F /  13.5 °C 53.4 °F /  11.9 °C 30.3in /  1025.1hPa Calm   4mph /  6.4km/h 90% 0in /  0.0mm 0 W/m2
04:12 56.3 °F /  13.5 °C 53.4 °F /  11.9 °C 30.3in /  1025.1hPa Calm   1mph /  1.6km/h 90% 0in /  0.0mm 0 W/m2
04:17 56.3 °F /  13.5 °C 53.4 °F /  11.9 °C 30.3in /  1025.1hPa SW 0.9mph /  1.4km/h 3mph /  4.8km/h 90% 0in /  0.0mm 0 W/m2
04:22 56.5 °F /  13.6 °C 54 °F /  12.2 °C 30.3in /  1025.1hPa West 2mph /  3.2km/h 2mph /  3.2km/h 91% 0in /  0.0mm 0 W/m2
04:27 56.5 °F /  13.6 °C 53.6 °F /  12 °C 30.3in /  1025.1hPa Calm   3mph /  4.8km/h 90% 0in /  0.0mm 0 W/m2
04:32 56.3 °F /  13.5 °C 53.8 °F /  12.1 °C 30.3in /  1025.1hPa ESE 0.9mph /  1.4km/h 3mph /  4.8km/h 91% 0in /  0.0mm 0 W/m2
04:37 56.5 °F /  13.6 °C 54 °F /  12.2 °C 30.3in /  1025.1hPa North 0.9mph /  1.4km/h 2mph /  3.2km/h 91% 0in /  0.0mm 0 W/m2
04:42 56.7 °F /  13.7 °C 54.1 °F /  12.3 °C 30.3in /  1025.1hPa ESE 2mph /  3.2km/h 3mph /  4.8km/h 91% 0in /  0.0mm 0 W/m2
04:47 56.8 °F /  13.8 °C 54.3 °F /  12.4 °C 30.3in /  1025.1hPa WNW 0.9mph /  1.4km/h 3mph /  4.8km/h 91% 0in /  0.0mm 0 W/m2
04:52 56.8 °F /  13.8 °C 54.3 °F /  12.4 °C 30.3in /  1025.1hPa Calm   1mph /  1.6km/h 91% 0in /  0.0mm 0 W/m2
04:57 56.7 °F /  13.7 °C 53.8 °F /  12.1 °C 30.3in /  1025.1hPa West 0.9mph /  1.4km/h 2mph /  3.2km/h 90% 0in /  0.0mm 0 W/m2
05:02 56.7 °F /  13.7 °C 54.1 °F /  12.3 °C 30.3in /  1025.1hPa East 0.9mph /  1.4km/h 2mph /  3.2km/h 91% 0in /  0.0mm 0 W/m2
05:07 56.5 °F /  13.6 °C 54 °F /  12.2 °C 30.3in /  1025.1hPa ESE 2mph /  3.2km/h 2mph /  3.2km/h 91% 0in /  0.0mm 0 W/m2
05:12 56.7 °F /  13.7 °C 54.1 °F /  12.3 °C 30.3in /  1025.1hPa ENE 0.9mph /  1.4km/h 3mph /  4.8km/h 91% 0in /  0.0mm 0 W/m2
05:17 56.7 °F /  13.7 °C 54.1 °F /  12.3 °C 30.3in /  1025.1hPa NE 0.9mph /  1.4km/h 5mph /  8km/h 91% 0in /  0.0mm 0 W/m2
05:22 56.7 °F /  13.7 °C 54.1 °F /  12.3 °C 30.3in /  1025.1hPa ENE 0.9mph /  1.4km/h 4mph /  6.4km/h 91% 0in /  0.0mm 0 W/m2
05:27 56.5 °F /  13.6 °C 54 °F /  12.2 °C 30.3in /  1025.1hPa NE 0.9mph /  1.4km/h 5mph /  8km/h 91% 0in /  0.0mm 0 W/m2
05:32 56.7 °F /  13.7 °C 54.3 °F /  12.4 °C 30.3in /  1025.1hPa West 2mph /  3.2km/h 3mph /  4.8km/h 92% 0in /  0.0mm 0 W/m2
05:37 56.7 °F /  13.7 °C 54.3 °F /  12.4 °C 30.3in /  1025.1hPa Calm   2mph /  3.2km/h 92% 0in /  0.0mm 0 W/m2
05:42 56.7 °F /  13.7 °C 54.3 °F /  12.4 °C 30.3in /  1025.1hPa NW 0.9mph /  1.4km/h 2mph /  3.2km/h 92% 0in /  0.0mm 0 W/m2
05:47 56.7 °F /  13.7 °C 54.3 °F /  12.4 °C 30.3in /  1025.1hPa ENE 4mph /  6.4km/h 4mph /  6.4km/h 92% 0in /  0.0mm 0 W/m2
05:52 56.5 °F /  13.6 °C 54.1 °F /  12.3 °C 30.3in /  1025.1hPa West 2mph /  3.2km/h 5mph /  8km/h 92% 0in /  0.0mm 0 W/m2
05:57 56.5 °F /  13.6 °C 54.1 °F /  12.3 °C 30.3in /  1025.1hPa East 2mph /  3.2km/h 3mph /  4.8km/h 92% 0in /  0.0mm 0 W/m2
06:02 56.5 °F /  13.6 °C 54.1 °F /  12.3 °C 30.3in /  1025.1hPa Calm   2mph /  3.2km/h 92% 0in /  0.0mm 0 W/m2
06:07 56.5 °F /  13.6 °C 54.1 °F /  12.3 °C 30.3in /  1025.1hPa WNW 0.9mph /  1.4km/h 3mph /  4.8km/h 92% 0in /  0.0mm 0 W/m2
06:12 56.3 °F /  13.5 °C 54 °F /  12.2 °C 30.3in /  1025.1hPa Calm   2mph /  3.2km/h 92% 0in /  0.0mm 0 W/m2
06:17 56.1 °F /  13.4 °C 53.8 °F /  12.1 °C 30.3in /  1025.1hPa SSE 2mph /  3.2km/h 5mph /  8km/h 92% 0in /  0.0mm 0 W/m2
06:22 56.1 °F /  13.4 °C 53.8 °F /  12.1 °C 30.3in /  1025.4hPa Calm   3mph /  4.8km/h 92% 0in /  0.0mm 0 W/m2
06:27 56.1 °F /  13.4 °C 53.8 °F /  12.1 °C 30.3in /  1025.4hPa Calm   6mph /  9.7km/h 92% 0in /  0.0mm 0 W/m2
06:32 56.1 °F /  13.4 °C 53.8 °F /  12.1 °C 30.3in /  1025.4hPa SE 0.9mph /  1.4km/h 1mph /  1.6km/h 92% 0in /  0.0mm 0 W/m2
06:37 56.1 °F /  13.4 °C 53.8 °F /  12.1 °C 30.3in /  1025.4hPa East 2mph /  3.2km/h 2mph /  3.2km/h 92% 0in /  0.0mm 0 W/m2
06:42 56.1 °F /  13.4 °C 53.8 °F /  12.1 °C 30.3in /  1025.4hPa Calm     92% 0in /  0.0mm 0 W/m2
06:47 56.1 °F /  13.4 °C 53.8 °F /  12.1 °C 30.3in /  1025.4hPa Calm   1mph /  1.6km/h 92% 0in /  0.0mm 0 W/m2
06:52 56.1 °F /  13.4 °C 53.8 °F /  12.1 °C 30.3in /  1025.4hPa Calm   2mph /  3.2km/h 92% 0in /  0.0mm 0 W/m2
06:57 56.1 °F /  13.4 °C 53.8 °F /  12.1 °C 30.3in /  1025.4hPa NNE 0.9mph /  1.4km/h 1mph /  1.6km/h 92% 0in /  0.0mm 7 W/m2
07:02 56.1 °F /  13.4 °C 54.1 °F /  12.3 °C 30.3in /  1025.4hPa Calm   2mph /  3.2km/h 93% 0in /  0.0mm 9 W/m2
07:07 56.1 °F /  13.4 °C 54.1 °F /  12.3 °C 30.3in /  1025.4hPa South 2mph /  3.2km/h 4mph /  6.4km/h 93% 0in /  0.0mm 16 W/m2
07:12 56.1 °F /  13.4 °C 54.1 °F /  12.3 °C 30.3in /  1025.4hPa East 2mph /  3.2km/h 3mph /  4.8km/h 93% 0in /  0.0mm 18 W/m2
07:17 56.1 °F /  13.4 °C 54.1 °F /  12.3 °C 30.3in /  1025.4hPa North 0.9mph /  1.4km/h 2mph /  3.2km/h 93% 0in /  0.0mm 23 W/m2
07:22 56.3 °F /  13.5 °C 54 °F /  12.2 °C 30.3in /  1025.4hPa West 0.9mph /  1.4km/h 2mph /  3.2km/h 92% 0in /  0.0mm 32 W/m2
07:27 56.5 °F /  13.6 °C 54.5 °F /  12.5 °C 30.3in /  1025.4hPa West 0.9mph /  1.4km/h 4mph /  6.4km/h 93% 0in /  0.0mm 35 W/m2
07:32 56.5 °F /  13.6 °C 54.5 °F /  12.5 °C 30.3in /  1025.4hPa ENE 2mph /  3.2km/h 2mph /  3.2km/h 93% 0in /  0.0mm 44 W/m2
07:37 56.7 °F /  13.7 °C 54.3 °F /  12.4 °C 30.3in /  1025.4hPa Calm   3mph /  4.8km/h 92% 0in /  0.0mm 44 W/m2
07:42 56.7 °F /  13.7 °C 54.3 °F /  12.4 °C 30.3in /  1025.4hPa Calm   2mph /  3.2km/h 92% 0in /  0.0mm 49 W/m2
07:47 56.8 °F /  13.8 °C 54.5 °F /  12.5 °C 30.3in /  1025.7hPa SW 0.9mph /  1.4km/h 6mph /  9.7km/h 92% 0in /  0.0mm 47 W/m2
07:53 56.8 °F /  13.8 °C 54.5 °F /  12.5 °C 30.3in /  1025.4hPa SW 2mph /  3.2km/h 2mph /  3.2km/h 92% 0in /  0.0mm 49 W/m2
07:58 56.8 °F /  13.8 °C 54.5 °F /  12.5 °C 30.3in /  1025.4hPa SW 0.9mph /  1.4km/h 6mph /  9.7km/h 92% 0in /  0.0mm 53 W/m2
08:03 57 °F /  13.9 °C 54.7 °F /  12.6 °C 30.3in /  1025.4hPa ENE 2mph /  3.2km/h 4mph /  6.4km/h 92% 0in /  0.0mm 53 W/m2
08:08 57.2 °F /  14 °C 54.7 °F /  12.6 °C 30.3in /  1025.7hPa West 0.9mph /  1.4km/h 3mph /  4.8km/h 91% 0in /  0.0mm 54 W/m2
08:13 57.4 °F /  14.1 °C 54.9 °F /  12.7 °C 30.3in /  1025.7hPa NNW 0.9mph /  1.4km/h 4mph /  6.4km/h 91% 0in /  0.0mm 56 W/m2
08:18 57.6 °F /  14.2 °C 55 °F /  12.8 °C 30.3in /  1025.4hPa NNW 0.9mph /  1.4km/h 3mph /  4.8km/h 91% 0in /  0.0mm 74 W/m2
08:23 57.6 °F /  14.2 °C 55 °F /  12.8 °C 30.3in /  1025.4hPa West 2.9mph /  4.7km/h 4mph /  6.4km/h 91% 0in /  0.0mm 118 W/m2
08:28 57.7 °F /  14.3 °C 55.2 °F /  12.9 °C 30.3in /  1025.4hPa North 2.9mph /  4.7km/h 3mph /  4.8km/h 91% 0in /  0.0mm 137 W/m2
08:33 57.9 °F /  14.4 °C 55 °F /  12.8 °C 30.3in /  1025.4hPa East 2mph /  3.2km/h 5mph /  8km/h 90% 0in /  0.0mm 156 W/m2
08:38 58.3 °F /  14.6 °C 55.4 °F /  13 °C 30.3in /  1025.7hPa NW 0.9mph /  1.4km/h 3mph /  4.8km/h 90% 0in /  0.0mm 160 W/m2
08:43 58.5 °F /  14.7 °C 55.6 °F /  13.1 °C 30.3in /  1025.7hPa ESE 2mph /  3.2km/h 7mph /  11.3km/h 90% 0in /  0.0mm 181 W/m2
08:48 58.6 °F /  14.8 °C 55.4 °F /  13 °C 30.3in /  1025.7hPa NW 0.9mph /  1.4km/h 4mph /  6.4km/h 89% 0in /  0.0mm 190 W/m2
08:53 58.8 °F /  14.9 °C 55.6 °F /  13.1 °C 30.3in /  1025.7hPa NW 2mph /  3.2km/h 4mph /  6.4km/h 89% 0in /  0.0mm 207 W/m2
08:58 59.2 °F /  15.1 °C 55.6 °F /  13.1 °C 30.3in /  1025.7hPa West 2mph /  3.2km/h 6mph /  9.7km/h 88% 0in /  0.0mm 223 W/m2
09:03 59.4 °F /  15.2 °C 55.8 °F /  13.2 °C 30.3in /  1025.7hPa West 2mph /  3.2km/h 4mph /  6.4km/h 88% 0in /  0.0mm 230 W/m2
09:08 59.5 °F /  15.3 °C 55.9 °F /  13.3 °C 30.3in /  1025.7hPa NW 2.9mph /  4.7km/h 3mph /  4.8km/h 88% 0in /  0.0mm 209 W/m2
09:13 59.7 °F /  15.4 °C 56.1 °F /  13.4 °C 30.3in /  1025.7hPa NNE 4mph /  6.4km/h 5mph /  8km/h 88% 0in /  0.0mm 83 W/m2
09:18 60.1 °F /  15.6 °C 56.1 °F /  13.4 °C 30.3in /  1025.7hPa SE 2mph /  3.2km/h 3mph /  4.8km/h 87% 0in /  0.0mm 216 W/m2
09:23 60.4 °F /  15.8 °C 56.5 °F /  13.6 °C 30.3in /  1025.7hPa NW 2mph /  3.2km/h 4mph /  6.4km/h 87% 0in /  0.0mm 301 W/m2
09:28 60.8 °F /  16 °C 56.7 °F /  13.7 °C 30.3in /  1025.7hPa West 2mph /  3.2km/h 3mph /  4.8km/h 86% 0in /  0.0mm 313 W/m2
09:33 61.2 °F /  16.2 °C 57 °F /  13.9 °C 30.3in /  1025.7hPa NW 2mph /  3.2km/h 4mph /  6.4km/h 86% 0in /  0.0mm 336 W/m2
09:38 61.3 °F /  16.3 °C 56.8 °F /  13.8 °C 30.3in /  1025.7hPa WNW 0.9mph /  1.4km/h 4mph /  6.4km/h 85% 0in /  0.0mm 338 W/m2
09:43 61.9 °F /  16.6 °C 57 °F /  13.9 °C 30.3in /  1025.7hPa East 2.9mph /  4.7km/h 7mph /  11.3km/h 84% 0in /  0.0mm 369 W/m2
09:48 62.4 °F /  16.9 °C 56.8 °F /  13.8 °C 30.3in /  1026.1hPa NE 8.9mph /  14.3km/h 9mph /  14.5km/h 82% 0in /  0.0mm 378 W/m2
09:53 62.6 °F /  17 °C 57 °F /  13.9 °C 30.3in /  1025.7hPa North 6mph /  9.7km/h 7mph /  11.3km/h 82% 0in /  0.0mm 397 W/m2
09:58 63 °F /  17.2 °C 56.7 °F /  13.7 °C 30.3in /  1026.1hPa NW 4.9mph /  7.9km/h 8mph /  12.9km/h 80% 0in /  0.0mm 396 W/m2
10:03 63 °F /  17.2 °C 57 °F /  13.9 °C 30.3in /  1026.1hPa NNW 4.9mph /  7.9km/h 8mph /  12.9km/h 81% 0in /  0.0mm 404 W/m2
10:08 63 °F /  17.2 °C 56.7 °F /  13.7 °C 30.3in /  1026.1hPa North 0.9mph /  1.4km/h 4mph /  6.4km/h 80% 0in /  0.0mm 176 W/m2
10:13 63 °F /  17.2 °C 56.7 °F /  13.7 °C 30.3in /  1026.1hPa ENE 2mph /  3.2km/h 4mph /  6.4km/h 80% 0in /  0.0mm 315 W/m2
10:18 63.1 °F /  17.3 °C 56.8 °F /  13.8 °C 30.3in /  1026.1hPa ENE 2.9mph /  4.7km/h 9mph /  14.5km/h 80% 0in /  0.0mm 452 W/m2
10:23 63.3 °F /  17.4 °C 57 °F /  13.9 °C 30.3in /  1026.1hPa ENE 8.1mph /  13km/h 8mph /  12.9km/h 80% 0in /  0.0mm 482 W/m2
10:28 63.7 °F /  17.6 °C 57 °F /  13.9 °C 30.3in /  1026.1hPa NNE 0.9mph /  1.4km/h 9mph /  14.5km/h 79% 0in /  0.0mm 515 W/m2
10:33 63.9 °F /  17.7 °C 57.2 °F /  14 °C 30.3in /  1026.1hPa SSW 0.9mph /  1.4km/h 4mph /  6.4km/h 79% 0in /  0.0mm 520 W/m2
10:38 63.7 °F /  17.6 °C 57 °F /  13.9 °C 30.3in /  1026.1hPa West 2mph /  3.2km/h 4mph /  6.4km/h 79% 0in /  0.0mm 141 W/m2
10:43 63.7 °F /  17.6 °C 56.7 °F /  13.7 °C 30.3in /  1026.1hPa WNW 2mph /  3.2km/h 6mph /  9.7km/h 78% 0in /  0.0mm 141 W/m2
10:48 63.3 °F /  17.4 °C 56.7 °F /  13.7 °C 30.3in /  1026.1hPa NNE 2mph /  3.2km/h 7mph /  11.3km/h 79% 0in /  0.0mm 246 W/m2
10:53 63.7 °F /  17.6 °C 57.4 °F /  14.1 °C 30.3in /  1026.1hPa NE 0.9mph /  1.4km/h 7mph /  11.3km/h 80% 0in /  0.0mm 624 W/m2
10:58 64 °F /  17.8 °C 57 °F /  13.9 °C 30.3in /  1026.1hPa North 0.9mph /  1.4km/h 4mph /  6.4km/h 78% 0in /  0.0mm 169 W/m2
11:03 64 °F /  17.8 °C 57 °F /  13.9 °C 30.3in /  1025.7hPa NW 2.9mph /  4.7km/h 4mph /  6.4km/h 78% 0in /  0.0mm 679 W/m2
11:08 64.8 °F /  18.2 °C 57.7 °F /  14.3 °C 30.3in /  1025.7hPa ENE 2mph /  3.2km/h 7mph /  11.3km/h 78% 0in /  0.0mm 721 W/m2
11:13 65.1 °F /  18.4 °C 58.1 °F /  14.5 °C 30.3in /  1025.7hPa NNW 4mph /  6.4km/h 4mph /  6.4km/h 78% 0in /  0.0mm 619 W/m2
11:18 65.7 °F /  18.7 °C 58.3 °F /  14.6 °C 30.3in /  1025.7hPa NNW 4.9mph /  7.9km/h 8mph /  12.9km/h 77% 0in /  0.0mm 768 W/m2
11:23 65.7 °F /  18.7 °C 57.9 °F /  14.4 °C 30.3in /  1025.7hPa WNW 2.9mph /  4.7km/h 7mph /  11.3km/h 76% 0in /  0.0mm 338 W/m2
11:28 65.7 °F /  18.7 °C 57.9 °F /  14.4 °C 30.3in /  1025.7hPa NW 4.9mph /  7.9km/h 10mph /  16.1km/h 76% 0in /  0.0mm 295 W/m2
11:33 65.7 °F /  18.7 °C 57.9 °F /  14.4 °C 30.3in /  1025.7hPa NNW 2mph /  3.2km/h 4mph /  6.4km/h 76% 0in /  0.0mm 784 W/m2
11:38 66.4 °F /  19.1 °C 58.6 °F /  14.8 °C 30.3in /  1025.7hPa East 2.9mph /  4.7km/h 8mph /  12.9km/h 76% 0in /  0.0mm 752 W/m2
11:43 66.9 °F /  19.4 °C 57.9 °F /  14.4 °C 30.3in /  1025.7hPa East 2mph /  3.2km/h 12mph /  19.3km/h 73% 0in /  0.0mm 719 W/m2
11:48 67.5 °F /  19.7 °C 58.5 °F /  14.7 °C 30.3in /  1025.7hPa NNE 2mph /  3.2km/h 6mph /  9.7km/h 73% 0in /  0.0mm 717 W/m2
11:53 67.8 °F /  19.9 °C 58.5 °F /  14.7 °C 30.3in /  1025.7hPa NE 4mph /  6.4km/h 12mph /  19.3km/h 72% 0in /  0.0mm 719 W/m2
11:58 68.2 °F /  20.1 °C 58.5 °F /  14.7 °C 30.3in /  1025.7hPa SE 2mph /  3.2km/h 7mph /  11.3km/h 71% 0in /  0.0mm 731 W/m2
12:03 68.4 °F /  20.2 °C 58.3 °F /  14.6 °C 30.3in /  1025.7hPa East 2mph /  3.2km/h 5mph /  8km/h 70% 0in /  0.0mm 663 W/m2
12:08 68.5 °F /  20.3 °C 58.8 °F /  14.9 °C 30.3in /  1025.7hPa ESE 2mph /  3.2km/h 5mph /  8km/h 71% 0in /  0.0mm 717 W/m2
12:13 68.5 °F /  20.3 °C 58.8 °F /  14.9 °C 30.3in /  1025.7hPa NNE 2.9mph /  4.7km/h 7mph /  11.3km/h 71% 0in /  0.0mm 705 W/m2
12:18 68.7 °F /  20.4 °C 58.1 °F /  14.5 °C 30.3in /  1025.4hPa NNW 2.9mph /  4.7km/h 5mph /  8km/h 69% 0in /  0.0mm 137 W/m2
12:23 68.4 °F /  20.2 °C 58.6 °F /  14.8 °C 30.3in /  1025.7hPa Calm   2mph /  3.2km/h 71% 0in /  0.0mm 188 W/m2
12:28 68.4 °F /  20.2 °C 59 °F /  15 °C 30.3in /  1025.4hPa NNE 2mph /  3.2km/h 4mph /  6.4km/h 72% 0in /  0.0mm 758 W/m2
12:33 68.7 °F /  20.4 °C 59 °F /  15 °C 30.3in /  1025.4hPa West 2mph /  3.2km/h 3mph /  4.8km/h 71% 0in /  0.0mm 255 W/m2
12:38 68.7 °F /  20.4 °C 58.5 °F /  14.7 °C 30.3in /  1025.4hPa ESE 6mph /  9.7km/h 8mph /  12.9km/h 70% 0in /  0.0mm 392 W/m2
12:43 68.7 °F /  20.4 °C 58.1 °F /  14.5 °C 30.3in /  1025.4hPa SE 4mph /  6.4km/h 6mph /  9.7km/h 69% 0in /  0.0mm 881 W/m2
12:48 69.1 °F /  20.6 °C 58.5 °F /  14.7 °C 30.3in /  1025.4hPa NNE 4.9mph /  7.9km/h 5mph /  8km/h 69% 0in /  0.0mm 846 W/m2
12:53 69.4 °F /  20.8 °C 58.5 °F /  14.7 °C 30.3in /  1025.4hPa NE 6mph /  9.7km/h 8mph /  12.9km/h 68% 0in /  0.0mm 846 W/m2
12:58 69.6 °F /  20.9 °C 59 °F /  15 °C 30.3in /  1025.4hPa NNE 2mph /  3.2km/h 8mph /  12.9km/h 69% 0in /  0.0mm 870 W/m2
13:03 70.2 °F /  21.2 °C 59.2 °F /  15.1 °C 30.3in /  1025.4hPa NE 4mph /  6.4km/h 5mph /  8km/h 68% 0in /  0.0mm 879 W/m2
13:08 70.5 °F /  21.4 °C 58.6 °F /  14.8 °C 30.3in /  1025.1hPa ESE 4mph /  6.4km/h 4mph /  6.4km/h 66% 0in /  0.0mm 840 W/m2
13:13 70.9 °F /  21.6 °C 58.5 °F /  14.7 °C 30.3in /  1025.1hPa NW 2mph /  3.2km/h 8mph /  12.9km/h 65% 0in /  0.0mm 842 W/m2
13:18 70.9 °F /  21.6 °C 59 °F /  15 °C 30.3in /  1025.4hPa NE 2.9mph /  4.7km/h 7mph /  11.3km/h 66% 0in /  0.0mm 265 W/m2
13:23 70.3 °F /  21.3 °C 58.1 °F /  14.5 °C 30.3in /  1025.4hPa East 4mph /  6.4km/h 9mph /  14.5km/h 65% 0in /  0.0mm 246 W/m2
13:28 70.2 °F /  21.2 °C 58.6 °F /  14.8 °C 30.3in /  1025.4hPa North 0.9mph /  1.4km/h 6mph /  9.7km/h 67% 0in /  0.0mm 833 W/m2
13:33 70.5 °F /  21.4 °C 58.1 °F /  14.5 °C 30.3in /  1025.1hPa NNW 2mph /  3.2km/h 5mph /  8km/h 65% 0in /  0.0mm 142 W/m2
13:38 70.5 °F /  21.4 °C 58.6 °F /  14.8 °C 30.3in /  1025.1hPa ENE 2mph /  3.2km/h 6mph /  9.7km/h 66% 0in /  0.0mm 172 W/m2
13:43 70.3 °F /  21.3 °C 58.1 °F /  14.5 °C 30.3in /  1025.1hPa WNW 4.9mph /  7.9km/h 6mph /  9.7km/h 65% 0in /  0.0mm 251 W/m2
13:48 70.2 °F /  21.2 °C 58.3 °F /  14.6 °C 30.3in /  1025.1hPa ESE 6mph /  9.7km/h 9mph /  14.5km/h 66% 0in /  0.0mm 359 W/m2
13:53 70.5 °F /  21.4 °C 58.1 °F /  14.5 °C 30.3in /  1025.1hPa East 6.9mph /  11.1km/h 9mph /  14.5km/h 65% 0in /  0.0mm 853 W/m2
13:58 71.1 °F /  21.7 °C 58.6 °F /  14.8 °C 30.3in /  1025.1hPa ENE 2.9mph /  4.7km/h 6mph /  9.7km/h 65% 0in /  0.0mm 884 W/m2
14:03 71.4 °F /  21.9 °C 58.6 °F /  14.8 °C 30.3in /  1025.1hPa NNE 8mph /  12.9km/h 8mph /  12.9km/h 64% 0in /  0.0mm 930 W/m2
14:08 71.4 °F /  21.9 °C 57.7 °F /  14.3 °C 30.3in /  1025.1hPa North 0.9mph /  1.4km/h 5mph /  8km/h 62% 0in /  0.0mm 197 W/m2
14:13 71.1 °F /  21.7 °C 57.7 °F /  14.3 °C 30.3in /  1025.1hPa ESE 4.9mph /  7.9km/h 5mph /  8km/h 63% 0in /  0.0mm 255 W/m2
14:18 70.7 °F /  21.5 °C 57 °F /  13.9 °C 30.3in /  1025.1hPa SE 4.9mph /  7.9km/h 7mph /  11.3km/h 62% 0in /  0.0mm 206 W/m2
14:23 70.5 °F /  21.4 °C 57.4 °F /  14.1 °C 30.3in /  1025.1hPa SE 0.9mph /  1.4km/h 4mph /  6.4km/h 63% 0in /  0.0mm 297 W/m2
14:28 71.1 °F /  21.7 °C 57.7 °F /  14.3 °C 30.3in /  1025.1hPa NE 2.9mph /  4.7km/h 8mph /  12.9km/h 63% 0in /  0.0mm 227 W/m2
14:33 71.1 °F /  21.7 °C 57.7 °F /  14.3 °C 30.3in /  1025.1hPa ENE 4.9mph /  7.9km/h 6mph /  9.7km/h 63% 0in /  0.0mm 230 W/m2
14:38 70.9 °F /  21.6 °C 57.7 °F /  14.3 °C 30.3in /  1025.1hPa NE 4mph /  6.4km/h 10mph /  16.1km/h 63% 0in /  0.0mm 244 W/m2
14:43 70.9 °F /  21.6 °C 57.7 °F /  14.3 °C 30.3in /  1025.1hPa NE 4.9mph /  7.9km/h 7mph /  11.3km/h 63% 0in /  0.0mm 793 W/m2
14:48 71.1 °F /  21.7 °C 57.7 °F /  14.3 °C 30.3in /  1024.7hPa NNE 2mph /  3.2km/h 9mph /  14.5km/h 63% 0in /  0.0mm 835 W/m2
14:53 71.6 °F /  22 °C 57.9 °F /  14.4 °C 30.3in /  1024.7hPa ENE 2.9mph /  4.7km/h 7mph /  11.3km/h 62% 0in /  0.0mm 216 W/m2
14:58 71.4 °F /  21.9 °C 57.2 °F /  14 °C 30.3in /  1024.7hPa ENE 2mph /  3.2km/h 7mph /  11.3km/h 61% 0in /  0.0mm 232 W/m2
15:03 71.8 °F /  22.1 °C 58.1 °F /  14.5 °C 30.3in /  1024.7hPa ESE 0.9mph /  1.4km/h 6mph /  9.7km/h 62% 0in /  0.0mm 872 W/m2
15:08 72.1 °F /  22.3 °C 57.9 °F /  14.4 °C 30.3in /  1024.7hPa ENE 2mph /  3.2km/h 10mph /  16.1km/h 61% 0in /  0.0mm 176 W/m2
15:13 71.6 °F /  22 °C 57.9 °F /  14.4 °C 30.3in /  1024.7hPa NE 4.9mph /  7.9km/h 8mph /  12.9km/h 62% 0in /  0.0mm 174 W/m2
15:18 71.4 °F /  21.9 °C 57.7 °F /  14.3 °C 30.3in /  1024.7hPa NNW 0.9mph /  1.4km/h 9mph /  14.5km/h 62% 0in /  0.0mm 267 W/m2
15:23 71.4 °F /  21.9 °C 58.1 °F /  14.5 °C 30.3in /  1024.7hPa SE 2mph /  3.2km/h 3mph /  4.8km/h 63% 0in /  0.0mm 547 W/m2
15:28 71.8 °F /  22.1 °C 58.5 °F /  14.7 °C 30.3in /  1024.7hPa NE 4mph /  6.4km/h 4mph /  6.4km/h 63% 0in /  0.0mm 715 W/m2
15:33 72.1 °F /  22.3 °C 57.6 °F /  14.2 °C 30.3in /  1024.7hPa East 2.9mph /  4.7km/h 9mph /  14.5km/h 60% 0in /  0.0mm 707 W/m2
15:38 72.1 °F /  22.3 °C 57.9 °F /  14.4 °C 30.3in /  1024.7hPa East 2.9mph /  4.7km/h 3mph /  4.8km/h 61% 0in /  0.0mm 821 W/m2
15:43 72.7 °F /  22.6 °C 57.9 °F /  14.4 °C 30.3in /  1024.4hPa East 4mph /  6.4km/h 9mph /  14.5km/h 60% 0in /  0.0mm 214 W/m2
15:48 72.3 °F /  22.4 °C 57.7 °F /  14.3 °C 30.3in /  1024.4hPa NE 2.9mph /  4.7km/h 11mph /  17.7km/h 60% 0in /  0.0mm 162 W/m2
15:53 71.8 °F /  22.1 °C 57.6 °F /  14.2 °C 30.3in /  1024.4hPa ENE 2.9mph /  4.7km/h 8mph /  12.9km/h 61% 0in /  0.0mm 290 W/m2
15:58 71.6 °F /  22 °C 57.4 °F /  14.1 °C 30.3in /  1024.4hPa Calm   11mph /  17.7km/h 61% 0in /  0.0mm 684 W/m2
16:03 72.3 °F /  22.4 °C 58.1 °F /  14.5 °C 30.3in /  1024.4hPa NE 4mph /  6.4km/h 4mph /  6.4km/h 61% 0in /  0.0mm 696 W/m2
16:08 72.9 °F /  22.7 °C 57.2 °F /  14 °C 30.3in /  1024.4hPa ENE 2mph /  3.2km/h 7mph /  11.3km/h 58% 0in /  0.0mm 396 W/m2
16:13 72.7 °F /  22.6 °C 57.9 °F /  14.4 °C 30.2in /  1024.0hPa East 2.9mph /  4.7km/h 9mph /  14.5km/h 60% 0in /  0.0mm 661 W/m2
16:18 72.7 °F /  22.6 °C 58.5 °F /  14.7 °C 30.2in /  1024.0hPa ENE 2mph /  3.2km/h 7mph /  11.3km/h 61% 0in /  0.0mm 186 W/m2
16:23 72.7 °F /  22.6 °C 57 °F /  13.9 °C 30.2in /  1024.0hPa ENE 2mph /  3.2km/h 4mph /  6.4km/h 58% 0in /  0.0mm 211 W/m2
16:28 72.5 °F /  22.5 °C 57.4 °F /  14.1 °C 30.2in /  1024.0hPa East 2mph /  3.2km/h 3mph /  4.8km/h 59% 0in /  0.0mm 731 W/m2
16:34 72.9 °F /  22.7 °C 57.7 °F /  14.3 °C 30.2in /  1024.0hPa NE 4mph /  6.4km/h 9mph /  14.5km/h 59% 0in /  0.0mm 183 W/m2
16:39 72.1 °F /  22.3 °C 57 °F /  13.9 °C 30.2in /  1024.0hPa ESE 2mph /  3.2km/h 7mph /  11.3km/h 59% 0in /  0.0mm 118 W/m2
16:44 71.8 °F /  22.1 °C 57.6 °F /  14.2 °C 30.2in /  1024.0hPa WSW 0.9mph /  1.4km/h 9mph /  14.5km/h 61% 0in /  0.0mm 561 W/m2
16:49 71.8 °F /  22.1 °C 57.2 °F /  14 °C 30.2in /  1024.0hPa ENE 2.9mph /  4.7km/h 7mph /  11.3km/h 60% 0in /  0.0mm 557 W/m2
16:54 72.1 °F /  22.3 °C 56.5 °F /  13.6 °C 30.2in /  1024.0hPa North 0.9mph /  1.4km/h 7mph /  11.3km/h 58% 0in /  0.0mm 615 W/m2
16:59 72.7 °F /  22.6 °C 57 °F /  13.9 °C 30.2in /  1024.0hPa NNE 0.9mph /  1.4km/h 7mph /  11.3km/h 58% 0in /  0.0mm 643 W/m2
17:04 72.9 °F /  22.7 °C 57.2 °F /  14 °C 30.2in /  1024.0hPa ENE 2.9mph /  4.7km/h 7mph /  11.3km/h 58% 0in /  0.0mm 241 W/m2
17:09 72.7 °F /  22.6 °C 57 °F /  13.9 °C 30.2in /  1024.0hPa SE 2mph /  3.2km/h 3mph /  4.8km/h 58% 0in /  0.0mm 209 W/m2
17:14 72.5 °F /  22.5 °C 57.4 °F /  14.1 °C 30.2in /  1024.0hPa East 10.1mph /  16.3km/h 10mph /  16.1km/h 59% 0in /  0.0mm 169 W/m2
17:19 72 °F /  22.2 °C 57.4 °F /  14.1 °C 30.2in /  1024.0hPa NW 8.1mph /  13km/h 8mph /  12.9km/h 60% 0in /  0.0mm 123 W/m2
17:24 71.8 °F /  22.1 °C 57.2 °F /  14 °C 30.2in /  1023.7hPa NE 2.9mph /  4.7km/h 4mph /  6.4km/h 60% 0in /  0.0mm 279 W/m2
17:29 71.8 °F /  22.1 °C 57.2 °F /  14 °C 30.2in /  1023.7hPa ESE 2.9mph /  4.7km/h 6mph /  9.7km/h 60% 0in /  0.0mm 445 W/m2
17:34 72 °F /  22.2 °C 56.8 °F /  13.8 °C 30.2in /  1023.7hPa ENE 0.9mph /  1.4km/h 3mph /  4.8km/h 59% 0in /  0.0mm 410 W/m2
17:39 72.5 °F /  22.5 °C 56.8 °F /  13.8 °C 30.2in /  1023.7hPa NW 2mph /  3.2km/h 8mph /  12.9km/h 58% 0in /  0.0mm 406 W/m2
17:44 72.9 °F /  22.7 °C 57.2 °F /  14 °C 30.2in /  1023.7hPa Calm   4mph /  6.4km/h 58% 0in /  0.0mm 404 W/m2
17:49 73 °F /  22.8 °C 57.4 °F /  14.1 °C 30.2in /  1023.7hPa West 2mph /  3.2km/h 11mph /  17.7km/h 58% 0in /  0.0mm 376 W/m2
17:54 73 °F /  22.8 °C 57.9 °F /  14.4 °C 30.2in /  1023.7hPa East 2.9mph /  4.7km/h 4mph /  6.4km/h 59% 0in /  0.0mm 429 W/m2
17:59 73 °F /  22.8 °C 57.9 °F /  14.4 °C 30.2in /  1023.7hPa NE 6mph /  9.7km/h 11mph /  17.7km/h 59% 0in /  0.0mm 424 W/m2
18:04 73 °F /  22.8 °C 57.4 °F /  14.1 °C 30.2in /  1023.7hPa NNE 2.9mph /  4.7km/h 6mph /  9.7km/h 58% 0in /  0.0mm 374 W/m2
18:09 73 °F /  22.8 °C 57.4 °F /  14.1 °C 30.2in /  1023.4hPa North 4mph /  6.4km/h 10mph /  16.1km/h 58% 0in /  0.0mm 302 W/m2
18:14 72.7 °F /  22.6 °C 57.6 °F /  14.2 °C 30.2in /  1023.4hPa West 2mph /  3.2km/h 4mph /  6.4km/h 59% 0in /  0.0mm 299 W/m2
18:19 72.7 °F /  22.6 °C 57.6 °F /  14.2 °C 30.2in /  1023.4hPa NE 2.9mph /  4.7km/h 4mph /  6.4km/h 59% 0in /  0.0mm 281 W/m2
18:24 72.1 °F /  22.3 °C 57.6 °F /  14.2 °C 30.2in /  1023.4hPa NNW 4mph /  6.4km/h 6mph /  9.7km/h 60% 0in /  0.0mm 269 W/m2
18:29 72 °F /  22.2 °C 57.4 °F /  14.1 °C 30.2in /  1023.4hPa SSW 0.9mph /  1.4km/h 8mph /  12.9km/h 60% 0in /  0.0mm 262 W/m2
18:34 71.8 °F /  22.1 °C 57.2 °F /  14 °C 30.2in /  1023.4hPa NE 2.9mph /  4.7km/h 7mph /  11.3km/h 60% 0in /  0.0mm 253 W/m2
18:39 71.6 °F /  22 °C 57 °F /  13.9 °C 30.2in /  1023.4hPa NE 2mph /  3.2km/h 4mph /  6.4km/h 60% 0in /  0.0mm 232 W/m2
18:44 71.4 °F /  21.9 °C 57.2 °F /  14 °C 30.2in /  1023.4hPa North 4mph /  6.4km/h 6mph /  9.7km/h 61% 0in /  0.0mm 213 W/m2
18:49 71.4 °F /  21.9 °C 57.2 °F /  14 °C 30.2in /  1023.4hPa Calm   8mph /  12.9km/h 61% 0in /  0.0mm 195 W/m2
18:54 71.4 °F /  21.9 °C 57.2 °F /  14 °C 30.2in /  1023.4hPa Calm   5mph /  8km/h 61% 0in /  0.0mm 178 W/m2
18:59 71.2 °F /  21.8 °C 57 °F /  13.9 °C 30.2in /  1023.4hPa East 2mph /  3.2km/h 8mph /  12.9km/h 61% 0in /  0.0mm 167 W/m2
19:04 71.1 °F /  21.7 °C 56.8 °F /  13.8 °C 30.2in /  1023.4hPa East 0.9mph /  1.4km/h 3mph /  4.8km/h 61% 0in /  0.0mm 149 W/m2
19:09 70.7 °F /  21.5 °C 57 °F /  13.9 °C 30.2in /  1023.4hPa NE 2mph /  3.2km/h 7mph /  11.3km/h 62% 0in /  0.0mm 137 W/m2
19:14 70.3 °F /  21.3 °C 57.2 °F /  14 °C 30.2in /  1023.4hPa East 0.9mph /  1.4km/h 3mph /  4.8km/h 63% 0in /  0.0mm 121 W/m2
19:19 70.2 °F /  21.2 °C 56.5 °F /  13.6 °C 30.2in /  1023.4hPa NNW 0.9mph /  1.4km/h 4mph /  6.4km/h 62% 0in /  0.0mm 105 W/m2
19:24 70 °F /  21.1 °C 56.8 °F /  13.8 °C 30.2in /  1023.4hPa NE 0.9mph /  1.4km/h 5mph /  8km/h 63% 0in /  0.0mm 93 W/m2
19:29 69.6 °F /  20.9 °C 56.8 °F /  13.8 °C 30.2in /  1023.7hPa ENE 2.9mph /  4.7km/h 3mph /  4.8km/h 64% 0in /  0.0mm 81 W/m2
19:34 69.4 °F /  20.8 °C 56.7 °F /  13.7 °C 30.2in /  1023.7hPa NNW 2mph /  3.2km/h 5mph /  8km/h 64% 0in /  0.0mm 53 W/m2
19:39 69.3 °F /  20.7 °C 56.5 °F /  13.6 °C 30.2in /  1023.7hPa ESE 0.9mph /  1.4km/h 2mph /  3.2km/h 64% 0in /  0.0mm 28 W/m2
19:44 68.9 °F /  20.5 °C 56.7 °F /  13.7 °C 30.2in /  1023.7hPa NW 0.9mph /  1.4km/h 3mph /  4.8km/h 65% 0in /  0.0mm 25 W/m2
19:49 68.5 °F /  20.3 °C 56.3 °F /  13.5 °C 30.2in /  1023.7hPa North 2.9mph /  4.7km/h 3mph /  4.8km/h 65% 0in /  0.0mm 21 W/m2
19:54 68 °F /  20 °C 56.3 °F /  13.5 °C 30.2in /  1023.7hPa North 0.9mph /  1.4km/h 5mph /  8km/h 66% 0in /  0.0mm 18 W/m2
19:59 67.6 °F /  19.8 °C 56.3 °F /  13.5 °C 30.2in /  1023.7hPa SW 0.9mph /  1.4km/h 3mph /  4.8km/h 67% 0in /  0.0mm 16 W/m2
20:04 67.3 °F /  19.6 °C 55.9 °F /  13.3 °C 30.2in /  1023.7hPa NNE 0.9mph /  1.4km/h 5mph /  8km/h 67% 0in /  0.0mm 12 W/m2
20:09 66.9 °F /  19.4 °C 55.9 °F /  13.3 °C 30.2in /  1023.7hPa West 2mph /  3.2km/h 5mph /  8km/h 68% 0in /  0.0mm 11 W/m2
20:14 66.6 °F /  19.2 °C 55.6 °F /  13.1 °C 30.2in /  1023.7hPa NW 2mph /  3.2km/h 4mph /  6.4km/h 68% 0in /  0.0mm 7 W/m2
20:19 66.4 °F /  19.1 °C 55.6 °F /  13.1 °C 30.2in /  1023.7hPa NE 0.9mph /  1.4km/h 4mph /  6.4km/h 68% 0in /  0.0mm 5 W/m2
20:24 66 °F /  18.9 °C 55.6 °F /  13.1 °C 30.2in /  1023.7hPa ENE 2mph /  3.2km/h 2mph /  3.2km/h 69% 0in /  0.0mm 0 W/m2
20:29 65.8 °F /  18.8 °C 55.4 °F /  13 °C 30.2in /  1024.0hPa NW 0.9mph /  1.4km/h 2mph /  3.2km/h 69% 0in /  0.0mm 0 W/m2
20:34 65.5 °F /  18.6 °C 55.4 °F /  13 °C 30.2in /  1024.0hPa Calm   3mph /  4.8km/h 70% 0in /  0.0mm 0 W/m2
20:39 65.1 °F /  18.4 °C 55 °F /  12.8 °C 30.2in /  1024.0hPa Calm   3mph /  4.8km/h 70% 0in /  0.0mm 0 W/m2
20:44 64.9 °F /  18.3 °C 54.9 °F /  12.7 °C 30.2in /  1024.0hPa ESE 2mph /  3.2km/h 2mph /  3.2km/h 70% 0in /  0.0mm 0 W/m2
20:49 64.8 °F /  18.2 °C 55.2 °F /  12.9 °C 30.2in /  1024.0hPa ENE 2mph /  3.2km/h 2mph /  3.2km/h 71% 0in /  0.0mm 0 W/m2
20:54 64.4 °F /  18 °C 54.9 °F /  12.7 °C 30.2in /  1024.0hPa ENE 0.9mph /  1.4km/h 2mph /  3.2km/h 71% 0in /  0.0mm 0 W/m2
20:59 64.2 °F /  17.9 °C 54.7 °F /  12.6 °C 30.2in /  1024.0hPa South 2mph /  3.2km/h 8mph /  12.9km/h 71% 0in /  0.0mm 0 W/m2
21:04 64 °F /  17.8 °C 54.5 °F /  12.5 °C 30.2in /  1024.0hPa NW 8.1mph /  13km/h 8mph /  12.9km/h 71% 0in /  0.0mm 0 W/m2
21:09 63.9 °F /  17.7 °C 54.3 °F /  12.4 °C 30.2in /  1024.0hPa NNW 2mph /  3.2km/h 6mph /  9.7km/h 71% 0in /  0.0mm 0 W/m2
21:14 63.9 °F /  17.7 °C 54.7 °F /  12.6 °C 30.3in /  1024.4hPa Calm   3mph /  4.8km/h 72% 0in /  0.0mm 0 W/m2
21:19 63.7 °F /  17.6 °C 54.5 °F /  12.5 °C 30.3in /  1024.4hPa NNW 2.9mph /  4.7km/h 4mph /  6.4km/h 72% 0in /  0.0mm 0 W/m2
21:24 63.5 °F /  17.5 °C 54.3 °F /  12.4 °C 30.3in /  1024.4hPa NW 0.9mph /  1.4km/h 3mph /  4.8km/h 72% 0in /  0.0mm 0 W/m2
21:29 63.3 °F /  17.4 °C 54.5 °F /  12.5 °C 30.3in /  1024.4hPa NW 2mph /  3.2km/h 3mph /  4.8km/h 73% 0in /  0.0mm 0 W/m2
21:34 63 °F /  17.2 °C 54.1 °F /  12.3 °C 30.3in /  1024.4hPa SE 0.9mph /  1.4km/h 5mph /  8km/h 73% 0in /  0.0mm 0 W/m2
21:39 62.8 °F /  17.1 °C 54 °F /  12.2 °C 30.3in /  1024.4hPa SSE 0.9mph /  1.4km/h 4mph /  6.4km/h 73% 0in /  0.0mm 0 W/m2
21:44 62.6 °F /  17 °C 54.1 °F /  12.3 °C 30.3in /  1024.7hPa NE 0.9mph /  1.4km/h 1mph /  1.6km/h 74% 0in /  0.0mm 0 W/m2
21:49 62.4 °F /  16.9 °C 54 °F /  12.2 °C 30.3in /  1024.7hPa NW 0.9mph /  1.4km/h 3mph /  4.8km/h 74% 0in /  0.0mm 0 W/m2
21:54 62.2 °F /  16.8 °C 54.1 °F /  12.3 °C 30.3in /  1024.7hPa NE 2mph /  3.2km/h 6mph /  9.7km/h 75% 0in /  0.0mm 0 W/m2
21:59 62.1 °F /  16.7 °C 54 °F /  12.2 °C 30.3in /  1024.7hPa NE 0.9mph /  1.4km/h 8mph /  12.9km/h 75% 0in /  0.0mm 0 W/m2
22:04 62.1 °F /  16.7 °C 54 °F /  12.2 °C 30.3in /  1024.7hPa NW 2.9mph /  4.7km/h 4mph /  6.4km/h 75% 0in /  0.0mm 0 W/m2
22:09 61.9 °F /  16.6 °C 53.8 °F /  12.1 °C 30.3in /  1024.7hPa ESE 2mph /  3.2km/h 8mph /  12.9km/h 75% 0in /  0.0mm 0 W/m2
22:14 61.5 °F /  16.4 °C 54 °F /  12.2 °C 30.3in /  1024.7hPa NNW 2mph /  3.2km/h 4mph /  6.4km/h 76% 0in /  0.0mm 0 W/m2
22:19 61.3 °F /  16.3 °C 54.1 °F /  12.3 °C 30.3in /  1024.7hPa ENE 0.9mph /  1.4km/h 1mph /  1.6km/h 77% 0in /  0.0mm 0 W/m2
22:24 61.2 °F /  16.2 °C 54 °F /  12.2 °C 30.3in /  1024.7hPa NW 2mph /  3.2km/h 4mph /  6.4km/h 77% 0in /  0.0mm 0 W/m2
22:29 61 °F /  16.1 °C 54.1 °F /  12.3 °C 30.3in /  1024.7hPa Calm   2mph /  3.2km/h 78% 0in /  0.0mm 0 W/m2
22:34 60.6 °F /  15.9 °C 53.8 °F /  12.1 °C 30.3in /  1024.7hPa North 0.9mph /  1.4km/h 3mph /  4.8km/h 78% 0in /  0.0mm 0 W/m2
22:39 60.6 °F /  15.9 °C 53.8 °F /  12.1 °C 30.3in /  1024.7hPa Calm   4mph /  6.4km/h 78% 0in /  0.0mm 0 W/m2
22:44 60.4 °F /  15.8 °C 53.6 °F /  12 °C 30.3in /  1024.7hPa NNW 0.9mph /  1.4km/h 5mph /  8km/h 78% 0in /  0.0mm 0 W/m2
22:49 60.3 °F /  15.7 °C 53.4 °F /  11.9 °C 30.3in /  1024.7hPa Calm   2mph /  3.2km/h 78% 0in /  0.0mm 0 W/m2
22:54 60.3 °F /  15.7 °C 53.4 °F /  11.9 °C 30.3in /  1025.1hPa ENE 2mph /  3.2km/h 2mph /  3.2km/h 78% 0in /  0.0mm 0 W/m2
22:59 60.1 °F /  15.6 °C 53.6 °F /  12 °C 30.3in /  1025.1hPa WNW 0.9mph /  1.4km/h 2mph /  3.2km/h 79% 0in /  0.0mm 0 W/m2
23:04 59.7 °F /  15.4 °C 53.2 °F /  11.8 °C 30.3in /  1025.1hPa Calm   4mph /  6.4km/h 79% 0in /  0.0mm 0 W/m2
23:09 59.5 °F /  15.3 °C 53.4 °F /  11.9 °C 30.3in /  1025.1hPa WNW 0.9mph /  1.4km/h 1mph /  1.6km/h 80% 0in /  0.0mm 0 W/m2
23:14 59.4 °F /  15.2 °C 53.2 °F /  11.8 °C 30.3in /  1025.1hPa Calm   4mph /  6.4km/h 80% 0in /  0.0mm 0 W/m2
23:19 59.2 °F /  15.1 °C 53.1 °F /  11.7 °C 30.3in /  1025.1hPa NNE 0.9mph /  1.4km/h 2mph /  3.2km/h 80% 0in /  0.0mm 0 W/m2
23:24 59 °F /  15 °C 53.2 °F /  11.8 °C 30.3in /  1025.1hPa WNW 0.9mph /  1.4km/h 2mph /  3.2km/h 81% 0in /  0.0mm 0 W/m2
23:29 58.6 °F /  14.8 °C 52.9 °F /  11.6 °C 30.3in /  1025.1hPa Calm   2mph /  3.2km/h 81% 0in /  0.0mm 0 W/m2
23:34 58.5 °F /  14.7 °C 53.1 °F /  11.7 °C 30.3in /  1025.1hPa WNW 0.9mph /  1.4km/h 1mph /  1.6km/h 82% 0in /  0.0mm 0 W/m2
23:39 58.3 °F /  14.6 °C 52.9 °F /  11.6 °C 30.3in /  1025.1hPa WNW 0.9mph /  1.4km/h 2mph /  3.2km/h 82% 0in /  0.0mm 0 W/m2
23:44 57.9 °F /  14.4 °C 52.5 °F /  11.4 °C 30.3in /  1025.1hPa NNW 0.9mph /  1.4km/h 1mph /  1.6km/h 82% 0in /  0.0mm 0 W/m2
23:49 57.9 °F /  14.4 °C 52.5 °F /  11.4 °C 30.3in /  1025.1hPa Calm   1mph /  1.6km/h 82% 0in /  0.0mm 0 W/m2
23:54 57.9 °F /  14.4 °C 52.5 °F /  11.4 °C 30.3in /  1025.1hPa NW 0.9mph /  1.4km/h 1mph /  1.6km/h 82% 0in /  0.0mm 0 W/m2
23:59 57.9 °F /  14.4 °C 52.7 °F /  11.5 °C 30.3in /  1025.1hPa NW 0.9mph /  1.4km/h 2mph /  3.2km/h 83% 0in /  0.0mm 0 W/m2
Juneau County Weather
Compliments of Weather Underground - 4 mb